sensor_id;sensor_type;location;lat;lon;timestamp;temperature;humidity
20125;DHT22;10223;50.862;4.360;2023-11-21T00:00:22;10.30;99.90
20125;DHT22;10223;50.862;4.360;2023-11-21T00:02:49;10.30;99.90
20125;DHT22;10223;50.862;4.360;2023-11-21T00:05:16;10.20;99.90
20125;DHT22;10223;50.862;4.360;2023-11-21T00:07:43;10.10;99.90
20125;DHT22;10223;50.862;4.360;2023-11-21T00:10:10;10.10;99.90
20125;DHT22;10223;50.862;4.360;2023-11-21T00:12:41;10.00;99.90
20125;DHT22;10223;50.862;4.360;2023-11-21T00:15:08;10.10;99.90
20125;DHT22;10223;50.862;4.360;2023-11-21T00:17:36;10.10;99.90
20125;DHT22;10223;50.862;4.360;2023-11-21T00:20:04;10.10;99.90
20125;DHT22;10223;50.862;4.360;2023-11-21T00:22:32;9.90;99.90
20125;DHT22;10223;50.862;4.360;2023-11-21T00:24:59;9.80;99.90
20125;DHT22;10223;50.862;4.360;2023-11-21T00:27:25;9.80;99.90
20125;DHT22;10223;50.862;4.360;2023-11-21T00:29:54;9.80;99.90
20125;DHT22;10223;50.862;4.360;2023-11-21T00:32:19;9.70;99.90
20125;DHT22;10223;50.862;4.360;2023-11-21T00:34:46;9.70;99.90
20125;DHT22;10223;50.862;4.360;2023-11-21T00:37:14;9.80;99.90
20125;DHT22;10223;50.862;4.360;2023-11-21T00:39:41;9.70;99.90
20125;DHT22;10223;50.862;4.360;2023-11-21T00:42:08;9.70;99.90
20125;DHT22;10223;50.862;4.360;2023-11-21T00:44:37;9.60;99.90
20125;DHT22;10223;50.862;4.360;2023-11-21T00:47:06;9.50;99.90
20125;DHT22;10223;50.862;4.360;2023-11-21T00:49:33;9.60;99.90
20125;DHT22;10223;50.862;4.360;2023-11-21T00:52:00;9.50;99.90
20125;DHT22;10223;50.862;4.360;2023-11-21T00:54:28;9.50;99.90
20125;DHT22;10223;50.862;4.360;2023-11-21T00:56:55;9.60;99.90
20125;DHT22;10223;50.862;4.360;2023-11-21T00:59:22;9.60;99.90
20125;DHT22;10223;50.862;4.360;2023-11-21T01:01:50;9.70;99.90
20125;DHT22;10223;50.862;4.360;2023-11-21T01:04:18;9.70;99.90
20125;DHT22;10223;50.862;4.360;2023-11-21T01:06:44;9.60;99.90
20125;DHT22;10223;50.862;4.360;2023-11-21T01:09:11;9.50;99.90
20125;DHT22;10223;50.862;4.360;2023-11-21T01:11:38;9.60;99.90
20125;DHT22;10223;50.862;4.360;2023-11-21T01:14:05;9.60;99.90
20125;DHT22;10223;50.862;4.360;2023-11-21T01:16:34;9.40;99.90
20125;DHT22;10223;50.862;4.360;2023-11-21T01:19:01;9.60;99.90
20125;DHT22;10223;50.862;4.360;2023-11-21T01:21:32;9.50;99.90
20125;DHT22;10223;50.862;4.360;2023-11-21T01:23:59;9.50;99.90
20125;DHT22;10223;50.862;4.360;2023-11-21T01:26:26;9.50;99.90
20125;DHT22;10223;50.862;4.360;2023-11-21T01:28:53;9.50;99.90
20125;DHT22;10223;50.862;4.360;2023-11-21T01:31:20;9.50;99.90
20125;DHT22;10223;50.862;4.360;2023-11-21T01:33:47;9.50;99.90
20125;DHT22;10223;50.862;4.360;2023-11-21T01:36:14;9.50;99.90
20125;DHT22;10223;50.862;4.360;2023-11-21T01:38:42;9.60;99.90
20125;DHT22;10223;50.862;4.360;2023-11-21T01:41:09;9.90;99.90
20125;DHT22;10223;50.862;4.360;2023-11-21T01:43:36;9.70;99.90
20125;DHT22;10223;50.862;4.360;2023-11-21T01:46:04;9.50;99.90
20125;DHT22;10223;50.862;4.360;2023-11-21T01:48:32;9.60;99.90
20125;DHT22;10223;50.862;4.360;2023-11-21T01:50:59;9.70;99.90
20125;DHT22;10223;50.862;4.360;2023-11-21T01:53:26;9.70;99.90
20125;DHT22;10223;50.862;4.360;2023-11-21T01:55:55;9.80;99.90
20125;DHT22;10223;50.862;4.360;2023-11-21T01:58:23;9.60;99.90
20125;DHT22;10223;50.862;4.360;2023-11-21T02:00:50;9.70;99.90
20125;DHT22;10223;50.862;4.360;2023-11-21T02:03:17;9.80;99.90
20125;DHT22;10223;50.862;4.360;2023-11-21T02:05:43;9.80;99.90
20125;DHT22;10223;50.862;4.360;2023-11-21T02:08:10;9.80;99.90
20125;DHT22;10223;50.862;4.360;2023-11-21T02:10:37;9.70;99.90
20125;DHT22;10223;50.862;4.360;2023-11-21T02:13:05;9.60;99.90
20125;DHT22;10223;50.862;4.360;2023-11-21T02:15:32;9.60;99.90
20125;DHT22;10223;50.862;4.360;2023-11-21T02:17:59;9.60;99.90
20125;DHT22;10223;50.862;4.360;2023-11-21T02:20:28;9.60;99.90
20125;DHT22;10223;50.862;4.360;2023-11-21T02:22:57;9.70;99.90
20125;DHT22;10223;50.862;4.360;2023-11-21T02:25:25;9.70;99.90
20125;DHT22;10223;50.862;4.360;2023-11-21T02:27:53;9.70;99.90
20125;DHT22;10223;50.862;4.360;2023-11-21T02:30:20;9.70;99.90
20125;DHT22;10223;50.862;4.360;2023-11-21T02:32:47;9.70;99.90
20125;DHT22;10223;50.862;4.360;2023-11-21T02:35:15;9.80;99.90
20125;DHT22;10223;50.862;4.360;2023-11-21T02:37:42;9.80;99.90
20125;DHT22;10223;50.862;4.360;2023-11-21T02:40:11;9.70;99.90
20125;DHT22;10223;50.862;4.360;2023-11-21T02:42:39;9.80;99.90
20125;DHT22;10223;50.862;4.360;2023-11-21T02:45:07;9.80;99.90
20125;DHT22;10223;50.862;4.360;2023-11-21T02:47:34;9.80;99.90
20125;DHT22;10223;50.862;4.360;2023-11-21T02:50:01;9.80;99.90
20125;DHT22;10223;50.862;4.360;2023-11-21T02:52:28;9.70;99.90
20125;DHT22;10223;50.862;4.360;2023-11-21T02:54:55;9.70;99.90
20125;DHT22;10223;50.862;4.360;2023-11-21T02:57:23;9.70;99.90
20125;DHT22;10223;50.862;4.360;2023-11-21T02:59:50;9.60;99.90
20125;DHT22;10223;50.862;4.360;2023-11-21T03:02:17;9.60;99.90
20125;DHT22;10223;50.862;4.360;2023-11-21T03:04:43;9.70;99.90
20125;DHT22;10223;50.862;4.360;2023-11-21T03:07:10;9.60;99.90
20125;DHT22;10223;50.862;4.360;2023-11-21T03:09:37;9.60;99.90
20125;DHT22;10223;50.862;4.360;2023-11-21T03:12:05;9.70;99.90
20125;DHT22;10223;50.862;4.360;2023-11-21T03:14:33;9.70;99.90
20125;DHT22;10223;50.862;4.360;2023-11-21T03:17:00;9.70;99.90
20125;DHT22;10223;50.862;4.360;2023-11-21T03:19:28;9.70;99.90
20125;DHT22;10223;50.862;4.360;2023-11-21T03:21:55;9.60;99.90
20125;DHT22;10223;50.862;4.360;2023-11-21T03:24:21;9.70;99.90
20125;DHT22;10223;50.862;4.360;2023-11-21T03:26:49;9.70;99.90
20125;DHT22;10223;50.862;4.360;2023-11-21T03:29:16;9.60;99.90
20125;DHT22;10223;50.862;4.360;2023-11-21T03:31:44;9.70;99.90
20125;DHT22;10223;50.862;4.360;2023-11-21T03:34:24;9.60;99.90
20125;DHT22;10223;50.862;4.360;2023-11-21T03:36:51;9.60;99.90
20125;DHT22;10223;50.862;4.360;2023-11-21T03:39:19;9.70;99.90
20125;DHT22;10223;50.862;4.360;2023-11-21T03:41:46;9.80;99.90
20125;DHT22;10223;50.862;4.360;2023-11-21T03:44:13;9.70;99.90
20125;DHT22;10223;50.862;4.360;2023-11-21T03:46:40;9.70;99.90
20125;DHT22;10223;50.862;4.360;2023-11-21T03:49:08;9.60;99.90
20125;DHT22;10223;50.862;4.360;2023-11-21T03:51:36;9.80;99.90
20125;DHT22;10223;50.862;4.360;2023-11-21T03:54:03;9.80;99.90
20125;DHT22;10223;50.862;4.360;2023-11-21T03:56:30;9.80;99.90
20125;DHT22;10223;50.862;4.360;2023-11-21T03:58:57;9.70;99.90
20125;DHT22;10223;50.862;4.360;2023-11-21T04:01:24;9.70;99.90
20125;DHT22;10223;50.862;4.360;2023-11-21T04:03:51;9.70;99.90
20125;DHT22;10223;50.862;4.360;2023-11-21T04:06:19;9.80;99.90
20125;DHT22;10223;50.862;4.360;2023-11-21T04:08:46;9.80;99.90
20125;DHT22;10223;50.862;4.360;2023-11-21T04:11:13;9.80;99.90
20125;DHT22;10223;50.862;4.360;2023-11-21T04:13:41;9.70;99.90
20125;DHT22;10223;50.862;4.360;2023-11-21T04:16:09;9.70;99.90
20125;DHT22;10223;50.862;4.360;2023-11-21T04:18:36;9.70;99.90
20125;DHT22;10223;50.862;4.360;2023-11-21T04:21:04;9.60;99.90
20125;DHT22;10223;50.862;4.360;2023-11-21T04:23:32;9.80;99.90
20125;DHT22;10223;50.862;4.360;2023-11-21T04:25:59;9.70;99.90
20125;DHT22;10223;50.862;4.360;2023-11-21T04:28:28;9.70;99.90
20125;DHT22;10223;50.862;4.360;2023-11-21T04:30:55;9.60;99.90
20125;DHT22;10223;50.862;4.360;2023-11-21T04:33:22;9.70;99.90
20125;DHT22;10223;50.862;4.360;2023-11-21T04:35:48;9.60;99.90
20125;DHT22;10223;50.862;4.360;2023-11-21T04:38:15;9.70;99.90
20125;DHT22;10223;50.862;4.360;2023-11-21T04:40:44;9.60;99.90
20125;DHT22;10223;50.862;4.360;2023-11-21T04:43:11;9.50;99.90
20125;DHT22;10223;50.862;4.360;2023-11-21T04:45:38;9.50;99.90
20125;DHT22;10223;50.862;4.360;2023-11-21T04:48:06;9.50;99.90
20125;DHT22;10223;50.862;4.360;2023-11-21T04:50:33;9.60;99.90
20125;DHT22;10223;50.862;4.360;2023-11-21T04:53:00;9.70;99.90
20125;DHT22;10223;50.862;4.360;2023-11-21T04:55:27;9.60;99.90
20125;DHT22;10223;50.862;4.360;2023-11-21T04:57:55;9.80;99.90
20125;DHT22;10223;50.862;4.360;2023-11-21T05:00:22;9.70;99.90
20125;DHT22;10223;50.862;4.360;2023-11-21T05:02:49;9.60;99.90
20125;DHT22;10223;50.862;4.360;2023-11-21T05:05:16;9.50;99.90
20125;DHT22;10223;50.862;4.360;2023-11-21T05:07:44;9.40;99.90
20125;DHT22;10223;50.862;4.360;2023-11-21T05:10:11;9.50;99.90
20125;DHT22;10223;50.862;4.360;2023-11-21T05:12:40;9.60;99.90
20125;DHT22;10223;50.862;4.360;2023-11-21T05:15:10;9.80;99.90
20125;DHT22;10223;50.862;4.360;2023-11-21T05:17:39;9.80;99.90
20125;DHT22;10223;50.862;4.360;2023-11-21T05:20:08;9.70;99.90
20125;DHT22;10223;50.862;4.360;2023-11-21T05:22:35;9.60;99.90
20125;DHT22;10223;50.862;4.360;2023-11-21T05:25:03;9.80;99.90
20125;DHT22;10223;50.862;4.360;2023-11-21T05:27:30;9.80;99.90
20125;DHT22;10223;50.862;4.360;2023-11-21T05:29:57;9.60;99.90
20125;DHT22;10223;50.862;4.360;2023-11-21T05:32:25;9.60;99.90
20125;DHT22;10223;50.862;4.360;2023-11-21T05:34:53;9.60;99.90
20125;DHT22;10223;50.862;4.360;2023-11-21T05:37:19;9.60;99.90
20125;DHT22;10223;50.862;4.360;2023-11-21T05:39:46;9.50;99.90
20125;DHT22;10223;50.862;4.360;2023-11-21T05:42:13;9.50;99.90
20125;DHT22;10223;50.862;4.360;2023-11-21T05:44:42;9.50;99.90
20125;DHT22;10223;50.862;4.360;2023-11-21T05:47:09;9.60;99.90
20125;DHT22;10223;50.862;4.360;2023-11-21T05:49:37;9.70;99.90
20125;DHT22;10223;50.862;4.360;2023-11-21T05:52:04;9.70;99.90
20125;DHT22;10223;50.862;4.360;2023-11-21T05:54:32;9.70;99.90
20125;DHT22;10223;50.862;4.360;2023-11-21T05:56:59;9.60;99.90
20125;DHT22;10223;50.862;4.360;2023-11-21T05:59:26;9.70;99.90
20125;DHT22;10223;50.862;4.360;2023-11-21T06:01:53;9.80;99.90
20125;DHT22;10223;50.862;4.360;2023-11-21T06:04:20;9.80;99.90
20125;DHT22;10223;50.862;4.360;2023-11-21T06:06:51;9.90;99.90
20125;DHT22;10223;50.862;4.360;2023-11-21T06:09:18;9.70;99.90
20125;DHT22;10223;50.862;4.360;2023-11-21T06:11:45;9.90;99.90
20125;DHT22;10223;50.862;4.360;2023-11-21T06:14:12;9.80;99.90
20125;DHT22;10223;50.862;4.360;2023-11-21T06:16:38;9.80;99.90
20125;DHT22;10223;50.862;4.360;2023-11-21T06:19:06;9.90;99.90
20125;DHT22;10223;50.862;4.360;2023-11-21T06:21:33;9.80;99.90
20125;DHT22;10223;50.862;4.360;2023-11-21T06:24:02;9.80;99.90
20125;DHT22;10223;50.862;4.360;2023-11-21T06:26:29;9.90;99.90
20125;DHT22;10223;50.862;4.360;2023-11-21T06:28:57;10.00;99.90
20125;DHT22;10223;50.862;4.360;2023-11-21T06:31:24;9.90;99.90
20125;DHT22;10223;50.862;4.360;2023-11-21T06:33:50;10.00;99.90
20125;DHT22;10223;50.862;4.360;2023-11-21T06:36:18;10.10;99.90
20125;DHT22;10223;50.862;4.360;2023-11-21T06:38:45;10.20;99.90
20125;DHT22;10223;50.862;4.360;2023-11-21T06:41:13;10.20;99.90
20125;DHT22;10223;50.862;4.360;2023-11-21T06:43:41;10.20;99.90
20125;DHT22;10223;50.862;4.360;2023-11-21T06:46:11;10.10;99.90
20125;DHT22;10223;50.862;4.360;2023-11-21T06:48:40;10.20;99.90
20125;DHT22;10223;50.862;4.360;2023-11-21T06:51:07;10.10;99.90
20125;DHT22;10223;50.862;4.360;2023-11-21T06:53:34;10.20;99.90
20125;DHT22;10223;50.862;4.360;2023-11-21T06:56:02;10.20;99.90
20125;DHT22;10223;50.862;4.360;2023-11-21T06:58:30;10.40;99.90
20125;DHT22;10223;50.862;4.360;2023-11-21T07:00:57;10.50;99.90
20125;DHT22;10223;50.862;4.360;2023-11-21T07:03:24;10.50;99.90
20125;DHT22;10223;50.862;4.360;2023-11-21T07:05:51;10.60;99.90
20125;DHT22;10223;50.862;4.360;2023-11-21T07:08:18;10.60;99.90
20125;DHT22;10223;50.862;4.360;2023-11-21T07:10:45;10.60;99.90
20125;DHT22;10223;50.862;4.360;2023-11-21T07:13:12;10.50;99.90
20125;DHT22;10223;50.862;4.360;2023-11-21T07:15:41;10.50;99.90
20125;DHT22;10223;50.862;4.360;2023-11-21T07:18:09;10.60;99.90
20125;DHT22;10223;50.862;4.360;2023-11-21T07:20:35;10.60;99.90
20125;DHT22;10223;50.862;4.360;2023-11-21T07:23:02;10.50;99.90
20125;DHT22;10223;50.862;4.360;2023-11-21T07:25:29;10.50;99.90
20125;DHT22;10223;50.862;4.360;2023-11-21T07:27:57;10.60;99.90
20125;DHT22;10223;50.862;4.360;2023-11-21T07:30:24;10.60;99.90
20125;DHT22;10223;50.862;4.360;2023-11-21T07:32:52;10.80;99.90
20125;DHT22;10223;50.862;4.360;2023-11-21T07:35:18;10.60;99.90
20125;DHT22;10223;50.862;4.360;2023-11-21T07:37:45;10.70;99.90
20125;DHT22;10223;50.862;4.360;2023-11-21T07:40:13;10.80;99.90
20125;DHT22;10223;50.862;4.360;2023-11-21T07:42:40;10.80;99.90
20125;DHT22;10223;50.862;4.360;2023-11-21T07:45:08;10.90;99.90
20125;DHT22;10223;50.862;4.360;2023-11-21T07:47:35;10.90;99.90
20125;DHT22;10223;50.862;4.360;2023-11-21T07:50:09;10.80;99.90
20125;DHT22;10223;50.862;4.360;2023-11-21T07:52:36;10.70;99.90
20125;DHT22;10223;50.862;4.360;2023-11-21T07:55:03;10.80;99.90
20125;DHT22;10223;50.862;4.360;2023-11-21T07:57:31;10.70;99.90
20125;DHT22;10223;50.862;4.360;2023-11-21T07:59:58;10.80;99.90
20125;DHT22;10223;50.862;4.360;2023-11-21T08:02:25;10.70;99.90
20125;DHT22;10223;50.862;4.360;2023-11-21T08:04:52;10.90;99.90
20125;DHT22;10223;50.862;4.360;2023-11-21T08:07:21;10.80;99.90
20125;DHT22;10223;50.862;4.360;2023-11-21T08:09:47;10.70;99.90
20125;DHT22;10223;50.862;4.360;2023-11-21T08:12:15;10.70;99.90
20125;DHT22;10223;50.862;4.360;2023-11-21T08:14:43;10.80;99.90
20125;DHT22;10223;50.862;4.360;2023-11-21T08:17:10;10.70;99.90
20125;DHT22;10223;50.862;4.360;2023-11-21T08:19:36;10.80;99.90
20125;DHT22;10223;50.862;4.360;2023-11-21T08:22:03;10.80;99.90
20125;DHT22;10223;50.862;4.360;2023-11-21T08:24:34;10.90;99.90
20125;DHT22;10223;50.862;4.360;2023-11-21T08:27:01;11.00;99.90
20125;DHT22;10223;50.862;4.360;2023-11-21T08:29:29;10.90;99.90
20125;DHT22;10223;50.862;4.360;2023-11-21T08:31:56;11.00;99.90
20125;DHT22;10223;50.862;4.360;2023-11-21T08:34:23;11.00;99.90
20125;DHT22;10223;50.862;4.360;2023-11-21T08:36:50;11.00;99.90
20125;DHT22;10223;50.862;4.360;2023-11-21T08:39:17;11.00;99.90
20125;DHT22;10223;50.862;4.360;2023-11-21T08:41:46;11.10;99.90
20125;DHT22;10223;50.862;4.360;2023-11-21T08:44:13;11.20;99.90
20125;DHT22;10223;50.862;4.360;2023-11-21T08:46:42;11.10;99.90
20125;DHT22;10223;50.862;4.360;2023-11-21T08:49:10;11.10;99.90
20125;DHT22;10223;50.862;4.360;2023-11-21T08:51:38;11.10;99.90
20125;DHT22;10223;50.862;4.360;2023-11-21T08:54:05;11.20;99.90
20125;DHT22;10223;50.862;4.360;2023-11-21T08:56:33;11.20;99.90
20125;DHT22;10223;50.862;4.360;2023-11-21T08:59:01;11.20;99.90
20125;DHT22;10223;50.862;4.360;2023-11-21T09:01:28;11.20;99.90
20125;DHT22;10223;50.862;4.360;2023-11-21T09:03:56;11.20;99.90
20125;DHT22;10223;50.862;4.360;2023-11-21T09:06:23;11.30;99.90
20125;DHT22;10223;50.862;4.360;2023-11-21T09:08:50;11.30;99.90
20125;DHT22;10223;50.862;4.360;2023-11-21T09:11:17;11.40;99.90
20125;DHT22;10223;50.862;4.360;2023-11-21T09:13:44;11.40;99.90
20125;DHT22;10223;50.862;4.360;2023-11-21T09:16:14;11.40;99.90
20125;DHT22;10223;50.862;4.360;2023-11-21T09:18:41;11.40;99.90
20125;DHT22;10223;50.862;4.360;2023-11-21T09:21:08;11.40;99.90
20125;DHT22;10223;50.862;4.360;2023-11-21T09:23:36;11.50;99.90
20125;DHT22;10223;50.862;4.360;2023-11-21T09:26:02;11.30;99.90
20125;DHT22;10223;50.862;4.360;2023-11-21T09:28:31;11.40;99.90
20125;DHT22;10223;50.862;4.360;2023-11-21T09:30:57;11.40;99.90
20125;DHT22;10223;50.862;4.360;2023-11-21T09:33:26;11.50;99.90
20125;DHT22;10223;50.862;4.360;2023-11-21T09:35:52;11.40;99.90
20125;DHT22;10223;50.862;4.360;2023-11-21T09:38:19;11.30;99.90
20125;DHT22;10223;50.862;4.360;2023-11-21T09:40:46;11.10;99.90
20125;DHT22;10223;50.862;4.360;2023-11-21T09:43:17;11.20;99.90
20125;DHT22;10223;50.862;4.360;2023-11-21T09:45:45;11.30;99.90
20125;DHT22;10223;50.862;4.360;2023-11-21T09:48:14;11.40;99.90
20125;DHT22;10223;50.862;4.360;2023-11-21T09:50:43;11.40;99.90
20125;DHT22;10223;50.862;4.360;2023-11-21T09:53:13;11.50;99.90
20125;DHT22;10223;50.862;4.360;2023-11-21T09:55:45;11.50;99.90
20125;DHT22;10223;50.862;4.360;2023-11-21T09:58:13;11.50;99.90
20125;DHT22;10223;50.862;4.360;2023-11-21T10:00:41;11.50;99.90
20125;DHT22;10223;50.862;4.360;2023-11-21T10:03:08;11.50;99.90
20125;DHT22;10223;50.862;4.360;2023-11-21T10:05:35;11.50;99.90
20125;DHT22;10223;50.862;4.360;2023-11-21T10:08:08;11.50;99.90
20125;DHT22;10223;50.862;4.360;2023-11-21T10:10:35;11.60;99.90
20125;DHT22;10223;50.862;4.360;2023-11-21T10:13:04;11.50;99.90
20125;DHT22;10223;50.862;4.360;2023-11-21T10:15:34;11.60;99.90
20125;DHT22;10223;50.862;4.360;2023-11-21T10:18:02;11.40;99.90
20125;DHT22;10223;50.862;4.360;2023-11-21T10:20:32;11.50;99.90
20125;DHT22;10223;50.862;4.360;2023-11-21T10:23:00;11.50;99.90
20125;DHT22;10223;50.862;4.360;2023-11-21T10:25:30;11.50;99.90
20125;DHT22;10223;50.862;4.360;2023-11-21T10:27:58;11.60;99.90
20125;DHT22;10223;50.862;4.360;2023-11-21T10:30:32;11.80;99.90
20125;DHT22;10223;50.862;4.360;2023-11-21T10:33:03;11.60;99.90
20125;DHT22;10223;50.862;4.360;2023-11-21T10:35:42;11.70;99.90
20125;DHT22;10223;50.862;4.360;2023-11-21T10:38:12;11.80;99.90
20125;DHT22;10223;50.862;4.360;2023-11-21T10:40:41;11.90;99.90
20125;DHT22;10223;50.862;4.360;2023-11-21T10:43:10;11.90;99.90
20125;DHT22;10223;50.862;4.360;2023-11-21T10:45:39;12.10;99.90
20125;DHT22;10223;50.862;4.360;2023-11-21T10:48:06;12.20;99.90
20125;DHT22;10223;50.862;4.360;2023-11-21T10:50:35;12.30;99.90
20125;DHT22;10223;50.862;4.360;2023-11-21T10:53:02;12.20;99.90
20125;DHT22;10223;50.862;4.360;2023-11-21T10:55:30;12.20;99.90
20125;DHT22;10223;50.862;4.360;2023-11-21T10:58:00;12.20;99.90
20125;DHT22;10223;50.862;4.360;2023-11-21T11:00:29;12.20;99.90
20125;DHT22;10223;50.862;4.360;2023-11-21T11:02:56;12.10;99.90
20125;DHT22;10223;50.862;4.360;2023-11-21T11:05:26;12.20;99.90
20125;DHT22;10223;50.862;4.360;2023-11-21T11:07:58;12.30;99.90
20125;DHT22;10223;50.862;4.360;2023-11-21T11:10:27;12.40;99.90
20125;DHT22;10223;50.862;4.360;2023-11-21T11:12:55;12.50;99.90
20125;DHT22;10223;50.862;4.360;2023-11-21T11:15:24;12.50;99.90
20125;DHT22;10223;50.862;4.360;2023-11-21T11:17:52;12.50;99.90
20125;DHT22;10223;50.862;4.360;2023-11-21T11:20:23;12.40;99.90
20125;DHT22;10223;50.862;4.360;2023-11-21T11:22:59;12.50;99.90
20125;DHT22;10223;50.862;4.360;2023-11-21T11:25:53;12.50;99.90
20125;DHT22;10223;50.862;4.360;2023-11-21T11:28:29;12.80;99.90
20125;DHT22;10223;50.862;4.360;2023-11-21T11:31:10;12.80;99.90
20125;DHT22;10223;50.862;4.360;2023-11-21T11:33:45;12.80;99.90
20125;DHT22;10223;50.862;4.360;2023-11-21T11:36:19;12.70;99.90
20125;DHT22;10223;50.862;4.360;2023-11-21T11:38:48;12.70;99.90
20125;DHT22;10223;50.862;4.360;2023-11-21T11:41:25;12.70;99.90
20125;DHT22;10223;50.862;4.360;2023-11-21T11:43:52;12.80;99.90
20125;DHT22;10223;50.862;4.360;2023-11-21T11:46:20;12.70;99.90
20125;DHT22;10223;50.862;4.360;2023-11-21T11:48:48;12.90;99.90
20125;DHT22;10223;50.862;4.360;2023-11-21T11:51:29;12.70;99.90
20125;DHT22;10223;50.862;4.360;2023-11-21T11:53:57;12.60;99.90
20125;DHT22;10223;50.862;4.360;2023-11-21T11:56:29;12.70;99.90
20125;DHT22;10223;50.862;4.360;2023-11-21T11:59:00;12.50;99.90
20125;DHT22;10223;50.862;4.360;2023-11-21T12:01:32;12.50;99.90
20125;DHT22;10223;50.862;4.360;2023-11-21T12:04:26;12.50;99.90
20125;DHT22;10223;50.862;4.360;2023-11-21T12:07:00;12.30;99.90
20125;DHT22;10223;50.862;4.360;2023-11-21T12:09:30;12.40;99.90
20125;DHT22;10223;50.862;4.360;2023-11-21T12:11:57;12.20;99.90
20125;DHT22;10223;50.862;4.360;2023-11-21T12:14:25;12.20;99.90
20125;DHT22;10223;50.862;4.360;2023-11-21T12:16:54;12.20;99.90
20125;DHT22;10223;50.862;4.360;2023-11-21T12:19:21;12.30;99.90
20125;DHT22;10223;50.862;4.360;2023-11-21T12:21:49;12.40;99.90
20125;DHT22;10223;50.862;4.360;2023-11-21T12:24:16;12.30;99.90
20125;DHT22;10223;50.862;4.360;2023-11-21T12:26:43;12.30;99.90
20125;DHT22;10223;50.862;4.360;2023-11-21T12:29:11;12.20;99.90
20125;DHT22;10223;50.862;4.360;2023-11-21T12:31:37;12.20;99.90
20125;DHT22;10223;50.862;4.360;2023-11-21T12:34:06;12.20;99.90
20125;DHT22;10223;50.862;4.360;2023-11-21T12:36:37;12.20;99.90
20125;DHT22;10223;50.862;4.360;2023-11-21T12:39:04;12.30;99.90
20125;DHT22;10223;50.862;4.360;2023-11-21T12:41:31;12.50;99.90
20125;DHT22;10223;50.862;4.360;2023-11-21T12:43:58;12.60;99.90
20125;DHT22;10223;50.862;4.360;2023-11-21T12:46:25;12.70;99.90
20125;DHT22;10223;50.862;4.360;2023-11-21T12:48:55;12.70;99.90
20125;DHT22;10223;50.862;4.360;2023-11-21T12:51:23;12.50;99.90
20125;DHT22;10223;50.862;4.360;2023-11-21T12:53:50;12.50;99.90
20125;DHT22;10223;50.862;4.360;2023-11-21T12:56:18;12.50;99.90
20125;DHT22;10223;50.862;4.360;2023-11-21T12:58:49;12.50;99.90
20125;DHT22;10223;50.862;4.360;2023-11-21T13:01:17;12.40;99.90
20125;DHT22;10223;50.862;4.360;2023-11-21T13:03:47;12.40;99.90
20125;DHT22;10223;50.862;4.360;2023-11-21T13:06:17;12.40;99.90
20125;DHT22;10223;50.862;4.360;2023-11-21T13:08:45;12.40;99.90
20125;DHT22;10223;50.862;4.360;2023-11-21T13:11:13;12.30;99.90
20125;DHT22;10223;50.862;4.360;2023-11-21T13:13:41;12.40;99.90
20125;DHT22;10223;50.862;4.360;2023-11-21T13:16:09;12.30;99.90
20125;DHT22;10223;50.862;4.360;2023-11-21T13:18:36;12.30;99.90
20125;DHT22;10223;50.862;4.360;2023-11-21T13:21:04;12.20;99.90
20125;DHT22;10223;50.862;4.360;2023-11-21T13:23:36;12.20;99.90
20125;DHT22;10223;50.862;4.360;2023-11-21T13:26:04;12.30;99.90
20125;DHT22;10223;50.862;4.360;2023-11-21T13:28:32;12.30;99.90
20125;DHT22;10223;50.862;4.360;2023-11-21T13:33:29;12.20;99.90
20125;DHT22;10223;50.862;4.360;2023-11-21T13:35:58;12.30;99.90
20125;DHT22;10223;50.862;4.360;2023-11-21T13:38:27;12.50;99.90
20125;DHT22;10223;50.862;4.360;2023-11-21T13:40:58;12.30;99.90
20125;DHT22;10223;50.862;4.360;2023-11-21T13:43:27;12.30;99.90
20125;DHT22;10223;50.862;4.360;2023-11-21T13:45:54;12.20;99.90
20125;DHT22;10223;50.862;4.360;2023-11-21T13:48:25;12.20;99.90
20125;DHT22;10223;50.862;4.360;2023-11-21T13:51:00;12.20;99.90
20125;DHT22;10223;50.862;4.360;2023-11-21T13:53:36;12.30;99.90
20125;DHT22;10223;50.862;4.360;2023-11-21T13:56:04;12.10;99.90
20125;DHT22;10223;50.862;4.360;2023-11-21T13:58:33;12.00;99.90
20125;DHT22;10223;50.862;4.360;2023-11-21T14:01:10;11.90;99.90
20125;DHT22;10223;50.862;4.360;2023-11-21T14:03:50;11.80;99.90
20125;DHT22;10223;50.862;4.360;2023-11-21T14:06:22;11.70;99.90
20125;DHT22;10223;50.862;4.360;2023-11-21T14:08:55;11.70;99.90
20125;DHT22;10223;50.862;4.360;2023-11-21T14:11:22;11.70;99.90
20125;DHT22;10223;50.862;4.360;2023-11-21T14:13:51;11.60;99.90
20125;DHT22;10223;50.862;4.360;2023-11-21T14:16:17;11.60;99.90
20125;DHT22;10223;50.862;4.360;2023-11-21T14:18:44;11.60;99.90
20125;DHT22;10223;50.862;4.360;2023-11-21T14:21:21;11.50;99.90
20125;DHT22;10223;50.862;4.360;2023-11-21T14:23:48;11.50;99.90
20125;DHT22;10223;50.862;4.360;2023-11-21T14:26:15;11.60;99.90
20125;DHT22;10223;50.862;4.360;2023-11-21T14:28:43;11.50;99.90
20125;DHT22;10223;50.862;4.360;2023-11-21T14:31:11;11.50;99.90
20125;DHT22;10223;50.862;4.360;2023-11-21T14:33:41;11.50;99.90
20125;DHT22;10223;50.862;4.360;2023-11-21T14:36:08;11.50;99.90
20125;DHT22;10223;50.862;4.360;2023-11-21T14:38:35;11.50;99.90
20125;DHT22;10223;50.862;4.360;2023-11-21T14:41:03;11.50;99.90
20125;DHT22;10223;50.862;4.360;2023-11-21T14:43:32;11.50;99.90
20125;DHT22;10223;50.862;4.360;2023-11-21T14:46:00;11.60;99.90
20125;DHT22;10223;50.862;4.360;2023-11-21T14:48:30;11.50;99.90
20125;DHT22;10223;50.862;4.360;2023-11-21T14:51:08;11.50;99.90
20125;DHT22;10223;50.862;4.360;2023-11-21T14:53:56;11.60;99.90
20125;DHT22;10223;50.862;4.360;2023-11-21T14:56:26;11.70;99.90
20125;DHT22;10223;50.862;4.360;2023-11-21T14:58:56;11.60;99.90
20125;DHT22;10223;50.862;4.360;2023-11-21T15:01:24;11.60;99.90
20125;DHT22;10223;50.862;4.360;2023-11-21T15:04:07;11.70;99.90
20125;DHT22;10223;50.862;4.360;2023-11-21T15:06:40;11.70;99.90
20125;DHT22;10223;50.862;4.360;2023-11-21T15:09:08;11.90;99.90
20125;DHT22;10223;50.862;4.360;2023-11-21T15:12:03;11.70;99.90
20125;DHT22;10223;50.862;4.360;2023-11-21T15:14:42;11.70;99.90
20125;DHT22;10223;50.862;4.360;2023-11-21T15:17:09;11.70;99.90
20125;DHT22;10223;50.862;4.360;2023-11-21T15:19:36;11.70;99.90
20125;DHT22;10223;50.862;4.360;2023-11-21T15:22:04;11.80;99.90
20125;DHT22;10223;50.862;4.360;2023-11-21T15:24:32;11.50;99.90
20125;DHT22;10223;50.862;4.360;2023-11-21T15:26:59;11.50;99.90
20125;DHT22;10223;50.862;4.360;2023-11-21T15:29:27;11.50;99.90
20125;DHT22;10223;50.862;4.360;2023-11-21T15:31:54;11.50;99.90
20125;DHT22;10223;50.862;4.360;2023-11-21T15:34:22;11.50;99.90
20125;DHT22;10223;50.862;4.360;2023-11-21T15:36:49;11.50;99.90
20125;DHT22;10223;50.862;4.360;2023-11-21T15:39:18;11.40;99.90
20125;DHT22;10223;50.862;4.360;2023-11-21T15:41:47;11.40;99.90
20125;DHT22;10223;50.862;4.360;2023-11-21T15:44:14;11.40;99.90
20125;DHT22;10223;50.862;4.360;2023-11-21T15:46:42;11.30;99.90